createdAt,value
2024-01-04T00:01:23.456Z,99809.22
2024-01-04T00:03:51.848Z,99829.50
2024-01-04T00:06:22.613Z,99815.84
2024-01-04T00:08:50.638Z,99823.84
2024-01-04T00:11:19.106Z,99823.44
2024-01-04T00:13:47.105Z,99783.31
2024-01-04T00:16:15.045Z,99823.03
2024-01-04T00:18:44.020Z,99825.84
2024-01-04T00:21:15.574Z,99817.22
2024-01-04T00:23:44.079Z,99821.84
2024-01-04T00:26:12.076Z,99822.72
2024-01-04T00:28:40.614Z,99823.47
2024-01-04T00:31:13.607Z,99829.19
2024-01-04T00:33:41.912Z,99828.09
2024-01-04T00:36:11.647Z,99819.19
2024-01-04T00:38:40.341Z,99811.00
2024-01-04T00:41:08.391Z,99816.00
2024-01-04T00:43:38.602Z,99819.16
2024-01-04T00:46:06.469Z,99823.25
2024-01-04T00:48:34.622Z,99820.22
2024-01-04T00:51:03.050Z,99795.13
2024-01-04T00:53:34.159Z,99805.41
2024-01-04T00:56:02.626Z,99802.84
2024-01-04T00:58:30.739Z,99806.06
2024-01-04T01:00:59.288Z,99784.81
2024-01-04T01:03:27.612Z,99792.97
2024-01-04T01:05:55.512Z,99788.25
2024-01-04T01:08:24.019Z,99785.13
2024-01-04T01:10:52.707Z,99777.53
2024-01-04T01:13:23.777Z,99780.87
2024-01-04T01:15:52.101Z,99785.59
2024-01-04T01:18:20.231Z,99782.78
2024-01-04T01:20:48.374Z,99780.75
2024-01-04T01:23:16.726Z,99786.22
2024-01-04T01:25:44.785Z,99768.09
2024-01-04T01:28:13.796Z,99780.97
2024-01-04T01:30:43.450Z,99776.12
2024-01-04T01:33:11.564Z,99771.50
2024-01-04T01:35:39.901Z,99760.34
2024-01-04T01:38:08.378Z,99748.00
2024-01-04T01:40:39.405Z,99748.97
2024-01-04T01:43:07.503Z,99742.56
2024-01-04T01:45:36.051Z,99737.81
2024-01-04T01:48:06.298Z,99743.94
2024-01-04T01:50:34.972Z,99749.50
2024-01-04T01:53:03.484Z,99749.53
2024-01-04T01:55:32.200Z,99718.94
2024-01-04T01:58:00.790Z,99739.47
2024-01-04T02:00:29.462Z,99756.19
2024-01-04T02:02:58.671Z,99759.84
2024-01-04T02:05:26.587Z,99763.56
2024-01-04T02:07:54.661Z,99760.75
2024-01-04T02:10:23.325Z,99757.34
2024-01-04T02:12:51.571Z,99752.47
2024-01-04T02:15:19.747Z,99716.38
2024-01-04T02:17:48.579Z,99765.84
2024-01-04T02:20:37.000Z,99765.09
2024-01-04T02:23:05.655Z,99760.16
2024-01-04T02:25:34.272Z,99754.63
2024-01-04T02:28:02.245Z,99760.56
2024-01-04T02:30:30.960Z,99749.84
2024-01-04T02:33:01.921Z,99746.53
2024-01-04T02:35:30.080Z,99739.44
2024-01-04T02:37:58.246Z,99738.16
2024-01-04T02:40:26.612Z,99749.31
2024-01-04T02:42:54.655Z,99745.78
2024-01-04T02:45:22.513Z,99734.81
2024-01-04T02:47:51.256Z,99737.38
2024-01-04T02:50:20.247Z,99728.34
2024-01-04T02:52:48.306Z,99727.91
2024-01-04T02:55:19.602Z,99737.41
2024-01-04T02:57:47.580Z,99735.28
2024-01-04T03:00:19.030Z,99730.00
2024-01-04T03:02:47.508Z,99726.56
2024-01-04T03:05:15.865Z,99716.94
2024-01-04T03:07:47.052Z,99728.63
2024-01-04T03:10:15.516Z,99726.53
2024-01-04T03:12:43.530Z,99721.06
2024-01-04T03:15:12.253Z,99715.69
2024-01-04T03:17:40.596Z,99720.56
2024-01-04T03:20:09.309Z,99716.59
2024-01-04T03:22:37.286Z,99722.59
2024-01-04T03:25:07.145Z,99712.50
2024-01-04T03:27:35.253Z,99707.16
2024-01-04T03:30:03.505Z,99701.69
2024-01-04T03:32:32.850Z,99700.28
2024-01-04T03:35:00.941Z,99695.13
2024-01-04T03:37:28.915Z,99695.78
2024-01-04T03:39:57.380Z,99694.88
2024-01-04T03:42:25.382Z,99690.63
2024-01-04T03:44:53.418Z,99686.13
2024-01-04T03:47:21.909Z,99687.47
2024-01-04T03:49:49.960Z,99705.34
2024-01-04T03:52:17.996Z,99693.00
2024-01-04T03:54:46.457Z,99698.03
2024-01-04T03:57:14.516Z,99689.78
2024-01-04T03:59:42.564Z,99685.88
2024-01-04T04:02:14.239Z,99682.78
2024-01-04T04:04:42.738Z,99690.94
2024-01-04T04:07:11.764Z,99699.38
2024-01-04T04:09:39.933Z,99697.81
2024-01-04T04:12:08.686Z,99685.88
2024-01-04T04:14:36.930Z,99682.09
2024-01-04T04:17:05.144Z,99672.69
2024-01-04T04:19:33.560Z,99664.41
2024-01-04T04:22:01.715Z,99661.66
2024-01-04T04:24:29.748Z,99665.75
2024-01-04T04:27:01.249Z,99656.16
2024-01-04T04:29:29.257Z,99652.88
2024-01-04T04:31:57.252Z,99656.38
2024-01-04T04:34:25.881Z,99662.25
2024-01-04T04:36:54.022Z,99662.91
2024-01-04T04:39:22.113Z,99665.97
2024-01-04T04:41:50.561Z,99664.59
2024-01-04T04:44:18.554Z,99671.22
2024-01-04T04:46:46.608Z,99683.81
2024-01-04T04:49:15.243Z,99658.34
2024-01-04T04:51:46.320Z,99689.84
2024-01-04T04:54:18.329Z,99695.03
2024-01-04T04:56:46.540Z,99691.53
2024-01-04T04:59:15.656Z,99692.34
2024-01-04T05:01:45.676Z,99703.34
2024-01-04T05:04:13.872Z,99697.72
2024-01-04T05:06:43.509Z,99701.81
2024-01-04T05:09:11.681Z,99709.69
2024-01-04T05:11:39.620Z,99705.97
2024-01-04T05:14:08.046Z,99693.25
2024-01-04T05:16:35.915Z,99702.41
2024-01-04T05:19:04.278Z,99700.59
2024-01-04T05:21:34.770Z,99703.87
2024-01-04T05:24:07.094Z,99712.25
2024-01-04T05:26:35.548Z,99711.78
2024-01-04T05:29:03.987Z,99721.03
2024-01-04T05:31:31.820Z,99721.19
2024-01-04T05:34:00.446Z,99705.91
2024-01-04T05:36:28.634Z,99723.53
2024-01-04T05:38:56.729Z,99733.87
2024-01-04T05:41:25.214Z,99732.84
2024-01-04T05:43:53.271Z,99732.56
2024-01-04T05:46:22.170Z,99728.19
2024-01-04T05:48:54.111Z,99733.38
2024-01-04T05:51:25.348Z,99705.81
2024-01-04T05:54:10.975Z,99716.34
2024-01-04T05:56:40.197Z,99708.62
2024-01-04T05:59:08.189Z,99698.75
2024-01-04T06:01:38.207Z,99691.47
2024-01-04T06:04:07.686Z,99696.63
2024-01-04T06:06:35.824Z,99694.53
2024-01-04T06:09:06.685Z,99673.91
2024-01-04T06:11:35.270Z,99678.50
2024-01-04T06:14:05.151Z,99671.59
2024-01-04T06:16:33.693Z,99685.25
2024-01-04T06:19:02.237Z,99678.19
2024-01-04T06:21:30.352Z,99680.56
2024-01-04T06:23:58.852Z,99682.19
2024-01-04T06:26:27.393Z,99693.00
2024-01-04T06:28:55.396Z,99691.03
2024-01-04T06:31:23.349Z,99707.47
2024-01-04T06:33:54.861Z,99714.62
2024-01-04T06:36:22.998Z,99689.22
2024-01-04T06:38:52.167Z,99702.84
2024-01-04T06:41:24.727Z,99706.94
2024-01-04T06:43:53.323Z,99708.00
2024-01-04T06:46:21.366Z,99689.78
2024-01-04T06:48:49.551Z,99679.91
2024-01-04T06:51:18.226Z,99676.72
2024-01-04T06:53:46.440Z,99691.59
2024-01-04T06:56:20.142Z,99694.66
2024-01-04T06:58:49.522Z,99689.31
2024-01-04T07:01:21.318Z,99686.53
2024-01-04T07:03:50.959Z,99685.88
2024-01-04T07:06:19.024Z,99696.50
2024-01-04T07:08:47.037Z,99691.84
2024-01-04T07:11:15.407Z,99687.53
2024-01-04T07:13:43.581Z,99684.59
2024-01-04T07:16:11.525Z,99688.41
2024-01-04T07:18:40.027Z,99678.66
2024-01-04T07:21:08.296Z,99663.00
2024-01-04T07:23:36.351Z,99688.75
2024-01-04T07:26:07.926Z,99683.00
2024-01-04T07:28:36.055Z,99686.75
2024-01-04T07:31:04.840Z,99680.06
2024-01-04T07:33:33.074Z,99683.84
2024-01-04T07:36:01.585Z,99681.87
2024-01-04T07:38:30.007Z,99689.09
2024-01-04T07:40:58.076Z,99676.31
2024-01-04T07:43:26.143Z,99679.63
2024-01-04T07:45:54.466Z,99686.66
2024-01-04T07:48:23.303Z,99683.56
2024-01-04T07:50:54.071Z,99695.03
2024-01-04T07:53:22.800Z,99691.25
2024-01-04T07:55:54.043Z,99688.34
2024-01-04T07:58:25.824Z,99693.22
2024-01-04T08:00:59.855Z,99672.91
2024-01-04T08:03:30.159Z,99679.72
2024-01-04T08:05:58.327Z,99674.22
2024-01-04T08:08:29.032Z,99675.56
2024-01-04T08:10:59.402Z,99647.09
2024-01-04T08:13:27.675Z,99666.84
2024-01-04T08:15:56.048Z,99654.28
2024-01-04T08:18:24.898Z,99649.00
2024-01-04T08:20:53.145Z,99647.94
2024-01-04T08:23:21.649Z,99642.00
2024-01-04T08:25:50.031Z,99664.56
2024-01-04T08:28:18.202Z,99671.59
2024-01-04T08:30:46.423Z,99665.81
2024-01-04T08:33:14.945Z,99652.88
2024-01-04T08:35:43.176Z,99659.88
2024-01-04T08:38:11.131Z,99642.16
2024-01-04T08:40:43.583Z,99640.56
2024-01-04T08:43:11.583Z,99658.41
2024-01-04T08:45:39.815Z,99646.34
2024-01-04T08:48:11.277Z,99651.50
2024-01-04T08:50:39.745Z,99649.06
2024-01-04T08:53:08.822Z,99654.56
2024-01-04T08:55:40.100Z,99655.53
2024-01-04T08:58:10.083Z,99653.53
2024-01-04T09:00:38.196Z,99648.69
2024-01-04T09:03:06.631Z,99649.09
2024-01-04T09:05:35.220Z,99644.75
2024-01-04T09:08:03.994Z,99628.34
2024-01-04T09:10:32.874Z,99653.66
2024-01-04T09:13:01.332Z,99631.91
2024-01-04T09:15:29.562Z,99639.66
2024-01-04T09:17:57.988Z,99629.09
2024-01-04T09:20:26.460Z,99616.81
2024-01-04T09:22:54.637Z,99618.34
2024-01-04T09:25:24.362Z,99620.00
2024-01-04T09:27:58.118Z,99623.16
2024-01-04T09:33:14.793Z,99616.88
2024-01-04T09:35:43.091Z,99611.59
2024-01-04T09:38:11.135Z,99615.84
2024-01-04T09:40:39.545Z,99614.66
2024-01-04T09:43:08.830Z,99572.88
2024-01-04T09:45:40.324Z,99601.94
2024-01-04T09:48:21.034Z,99579.09
2024-01-04T09:50:57.346Z,99609.75
2024-01-04T09:53:27.475Z,99614.44
2024-01-04T09:55:58.016Z,99618.53
2024-01-04T09:58:26.670Z,99613.50
2024-01-04T10:00:55.972Z,99597.47
2024-01-04T10:03:27.172Z,99603.84
2024-01-04T10:05:57.624Z,99605.66
2024-01-04T10:08:35.756Z,99598.72
2024-01-04T10:11:14.560Z,99598.03
2024-01-04T10:13:44.013Z,99595.00
2024-01-04T10:16:14.975Z,99585.91
2024-01-04T10:18:47.444Z,99598.72
2024-01-04T10:21:17.109Z,99592.50
2024-01-04T10:23:45.731Z,99591.88
2024-01-04T10:26:19.279Z,99580.91
2024-01-04T10:28:47.804Z,99595.69
2024-01-04T10:31:18.030Z,99586.16
2024-01-04T10:33:46.943Z,99587.66
2024-01-04T10:36:17.727Z,99587.19
2024-01-04T10:38:46.174Z,99565.38
2024-01-04T10:41:21.325Z,99582.63
2024-01-04T10:44:08.014Z,99573.97
2024-01-04T10:46:38.844Z,99585.16
2024-01-04T10:49:07.262Z,99585.16
2024-01-04T10:51:35.471Z,99594.63
2024-01-04T10:54:03.821Z,99590.94
2024-01-04T10:56:36.691Z,99597.34
2024-01-04T10:59:06.318Z,99599.38
2024-01-04T11:01:35.682Z,99599.06
2024-01-04T11:04:04.187Z,99580.44
2024-01-04T11:06:35.898Z,99578.81
2024-01-04T11:09:04.586Z,99582.59
2024-01-04T11:11:35.338Z,99582.03
2024-01-04T11:14:07.189Z,99579.13
2024-01-04T11:17:06.132Z,99573.84
2024-01-04T11:20:18.780Z,99588.03
2024-01-04T11:23:12.424Z,99582.25
2024-01-04T11:25:51.744Z,99578.56
2024-01-04T11:28:29.784Z,99579.78
2024-01-04T11:31:06.358Z,99587.88
2024-01-04T11:33:42.972Z,99574.69
2024-01-04T11:36:18.030Z,99576.28
2024-01-04T11:38:47.958Z,99567.34
2024-01-04T11:41:15.985Z,99585.56
2024-01-04T11:43:48.217Z,99551.53
2024-01-04T11:46:28.159Z,99576.13
2024-01-04T11:49:06.153Z,99574.22
2024-01-04T11:51:34.816Z,99576.06
2024-01-04T11:54:03.976Z,99581.81
2024-01-04T11:56:32.040Z,99576.50
2024-01-04T11:59:14.268Z,99577.69
2024-01-04T12:01:44.889Z,99585.31
2024-01-04T12:04:17.309Z,99586.72
2024-01-04T12:06:50.169Z,99581.16
2024-01-04T12:09:19.522Z,99578.03
2024-01-04T12:11:56.910Z,99580.97
2024-01-04T12:14:27.096Z,99571.12
2024-01-04T12:16:55.554Z,99580.13
2024-01-04T12:19:23.839Z,99582.37
2024-01-04T12:21:56.788Z,99572.88
2024-01-04T12:24:25.836Z,99574.91
2024-01-04T12:26:54.819Z,99573.72
2024-01-04T12:29:23.233Z,99576.22
2024-01-04T12:31:52.197Z,99573.72
2024-01-04T12:34:21.437Z,99586.88
2024-01-04T12:36:49.485Z,99585.94
2024-01-04T12:39:17.556Z,99579.56
2024-01-04T12:41:46.734Z,99584.31
2024-01-04T12:44:16.630Z,99579.66
2024-01-04T12:46:46.256Z,99587.59
2024-01-04T12:49:20.330Z,99582.37
2024-01-04T12:51:55.393Z,99589.16
2024-01-04T12:54:23.740Z,99558.34
2024-01-04T12:56:56.756Z,99600.66
2024-01-04T12:59:24.927Z,99598.56
2024-01-04T13:01:53.405Z,99600.44
2024-01-04T13:04:21.981Z,99614.44
2024-01-04T13:06:50.512Z,99608.22
2024-01-04T13:09:21.629Z,99600.75
2024-01-04T13:11:49.772Z,99600.31
2024-01-04T13:14:18.216Z,99607.13
2024-01-04T13:16:46.466Z,99610.91
2024-01-04T13:19:16.840Z,99610.44
2024-01-04T13:21:46.291Z,99609.75
2024-01-04T13:24:14.656Z,99602.41
2024-01-04T13:26:44.848Z,99605.53
2024-01-04T13:29:15.332Z,99592.03
2024-01-04T13:31:43.451Z,99603.75
2024-01-04T13:34:11.814Z,99596.94
2024-01-04T13:36:40.511Z,99601.06
2024-01-04T13:39:12.083Z,99595.69
2024-01-04T13:41:41.812Z,99605.53
2024-01-04T13:44:09.732Z,99596.19
2024-01-04T13:46:37.733Z,99599.13
2024-01-04T13:49:06.273Z,99597.56
2024-01-04T13:51:35.079Z,99601.62
2024-01-04T13:54:03.522Z,99604.13
2024-01-04T13:56:32.952Z,99606.28
2024-01-04T13:59:01.049Z,99603.03
2024-01-04T14:01:29.221Z,99604.94
2024-01-04T14:03:57.939Z,99595.00
2024-01-04T14:06:26.216Z,99603.81
2024-01-04T14:08:55.363Z,99607.38
2024-01-04T14:11:26.611Z,99615.31
2024-01-04T14:13:59.556Z,99617.66
2024-01-04T14:16:28.080Z,99609.25
2024-01-04T14:18:56.332Z,99610.81
2024-01-04T14:21:24.838Z,99611.31
2024-01-04T14:23:53.746Z,99600.28
2024-01-04T14:26:21.948Z,99579.63
2024-01-04T14:28:50.049Z,99608.53
2024-01-04T14:31:20.767Z,99605.28
2024-01-04T14:33:51.508Z,99606.53
2024-01-04T14:36:20.408Z,99617.97
2024-01-04T14:38:50.248Z,99616.41
2024-01-04T14:41:19.337Z,99622.25
2024-01-04T14:43:50.212Z,99619.81
2024-01-04T14:46:27.329Z,99625.63
2024-01-04T14:48:56.294Z,99624.81
2024-01-04T14:51:25.358Z,99609.91
2024-01-04T14:53:54.130Z,99619.41
2024-01-04T14:56:23.160Z,99604.25
2024-01-04T14:58:51.330Z,99617.38
2024-01-04T15:01:22.376Z,99623.97
2024-01-04T15:03:54.442Z,99628.25
2024-01-04T15:06:22.694Z,99627.75
2024-01-04T15:08:52.059Z,99634.00
2024-01-04T15:11:21.683Z,99628.63
2024-01-04T15:13:49.937Z,99626.91
2024-01-04T15:16:17.874Z,99637.53
2024-01-04T15:18:46.520Z,99637.25
2024-01-04T15:21:14.742Z,99628.75
2024-01-04T15:23:42.847Z,99632.72
2024-01-04T15:26:12.602Z,99633.34
2024-01-04T15:28:40.928Z,99635.13
2024-01-04T15:31:09.099Z,99636.81
2024-01-04T15:33:37.847Z,99630.66
2024-01-04T15:36:06.268Z,99643.84
2024-01-04T15:38:35.285Z,99630.66
2024-01-04T15:41:04.251Z,99638.72
2024-01-04T15:43:32.478Z,99646.94
2024-01-04T15:46:01.000Z,99645.41
2024-01-04T15:48:29.737Z,99660.78
2024-01-04T15:51:00.472Z,99664.88
2024-01-04T15:53:28.583Z,99660.41
2024-01-04T15:55:57.304Z,99665.06
2024-01-04T15:58:25.325Z,99669.38
2024-01-04T16:00:53.400Z,99668.16
2024-01-04T16:03:22.049Z,99673.37
2024-01-04T16:05:50.536Z,99671.41
2024-01-04T16:08:18.643Z,99671.03
2024-01-04T16:10:47.126Z,99669.34
2024-01-04T16:13:15.265Z,99673.09
2024-01-04T16:15:43.200Z,99646.56
2024-01-04T16:18:11.946Z,99669.97
2024-01-04T16:20:44.250Z,99682.34
2024-01-04T16:23:13.731Z,99678.69
2024-01-04T16:25:41.782Z,99676.03
2024-01-04T16:28:09.743Z,99689.53
2024-01-04T16:30:38.247Z,99691.19
2024-01-04T16:33:08.340Z,99691.28
2024-01-04T16:35:40.178Z,99691.19
2024-01-04T16:38:09.051Z,99669.31
2024-01-04T16:40:37.470Z,99688.84
2024-01-04T16:43:12.408Z,99688.06
2024-01-04T16:45:40.794Z,99694.28
2024-01-04T16:48:09.317Z,99694.56
2024-01-04T16:50:37.766Z,99664.72
2024-01-04T16:53:06.486Z,99681.97
2024-01-04T16:55:37.866Z,99682.00
2024-01-04T16:58:11.100Z,99695.13
2024-01-04T17:00:45.338Z,99703.03
2024-01-04T17:03:33.849Z,99697.41
2024-01-04T17:06:04.389Z,99707.12
2024-01-04T17:08:33.421Z,99696.09
2024-01-04T17:11:01.774Z,99693.12
2024-01-04T17:13:31.009Z,99706.09
2024-01-04T17:15:59.699Z,99706.84
2024-01-04T17:18:34.550Z,99706.44
2024-01-04T17:21:03.167Z,99709.06
2024-01-04T17:23:37.164Z,99704.56
2024-01-04T17:26:08.525Z,99699.22
2024-01-04T17:28:36.968Z,99690.84
2024-01-04T17:31:05.505Z,99692.47
2024-01-04T17:33:34.132Z,99695.91
2024-01-04T17:36:22.074Z,99690.84
2024-01-04T17:38:56.082Z,99688.31
2024-01-04T17:41:27.799Z,99685.53
2024-01-04T17:43:56.366Z,99670.16
2024-01-04T17:46:25.044Z,99679.44
2024-01-04T17:48:57.757Z,99652.91
2024-01-04T17:51:27.337Z,99685.31
2024-01-04T17:53:55.758Z,99694.19
2024-01-04T17:56:24.009Z,99679.72
2024-01-04T17:58:52.448Z,99683.59
2024-01-04T18:01:23.682Z,99686.84
2024-01-04T18:03:52.585Z,99690.38
2024-01-04T18:06:23.959Z,99701.44
2024-01-04T18:08:54.980Z,99692.84
2024-01-04T18:11:24.419Z,99703.31
2024-01-04T18:13:54.124Z,99702.50
2024-01-04T18:16:25.938Z,99706.78
2024-01-04T18:18:55.599Z,99708.41
2024-01-04T18:21:24.980Z,99702.28
2024-01-04T18:24:00.513Z,99699.06
2024-01-04T18:26:32.118Z,99699.28
2024-01-04T18:29:04.676Z,99696.78
2024-01-04T18:31:33.932Z,99700.19
2024-01-04T18:34:03.058Z,99685.16
2024-01-04T18:36:41.412Z,99692.56
2024-01-04T18:39:11.638Z,99696.50
2024-01-04T18:41:45.066Z,99705.72
2024-01-04T18:44:16.072Z,99703.22
2024-01-04T18:49:47.301Z,99700.50
2024-01-04T18:52:20.959Z,99703.94
2024-01-04T18:54:49.019Z,99704.97
2024-01-04T18:57:17.537Z,99696.50
2024-01-04T18:59:45.853Z,99688.03
2024-01-04T19:02:15.791Z,99704.41
2024-01-04T19:04:48.363Z,99704.22
2024-01-04T19:07:19.522Z,99702.31
2024-01-04T19:09:48.634Z,99711.44
2024-01-04T19:12:17.781Z,99702.31
2024-01-04T19:14:46.266Z,99703.84
2024-01-04T19:17:15.337Z,99710.31
2024-01-04T19:19:44.772Z,99690.13
2024-01-04T19:22:13.119Z,99717.22
2024-01-04T19:24:41.944Z,99716.41
2024-01-04T19:27:10.332Z,99714.78
2024-01-04T19:29:38.531Z,99713.16
2024-01-04T19:32:07.224Z,99708.59
2024-01-04T19:34:35.451Z,99716.09
2024-01-04T19:37:03.945Z,99712.88
2024-01-04T19:39:37.271Z,99715.62
2024-01-04T19:42:19.106Z,99713.63
2024-01-04T19:44:51.461Z,99713.34
2024-01-04T19:47:31.041Z,99720.88
2024-01-04T19:50:06.283Z,99719.63
2024-01-04T19:52:39.404Z,99730.50
2024-01-04T19:55:15.181Z,99725.75
2024-01-04T19:57:44.265Z,99731.63
2024-01-04T20:00:17.477Z,99718.28
2024-01-04T20:02:47.514Z,99719.63
2024-01-04T20:05:16.438Z,99717.22
2024-01-04T20:07:45.128Z,99730.50
2024-01-04T20:10:13.682Z,99717.91
2024-01-04T20:12:51.268Z,99729.16
2024-01-04T20:15:19.684Z,99726.31
2024-01-04T20:18:07.773Z,99736.22
2024-01-04T20:20:44.541Z,99735.06
2024-01-04T20:23:17.389Z,99736.88
2024-01-04T20:25:45.867Z,99736.97
2024-01-04T20:28:14.108Z,99702.66
2024-01-04T20:30:42.466Z,99738.66
2024-01-04T20:33:14.088Z,99740.47
2024-01-04T20:35:42.042Z,99739.53
2024-01-04T20:38:10.800Z,99732.28
2024-01-04T20:40:41.905Z,99732.84
2024-01-04T20:43:31.105Z,99738.19
2024-01-04T20:45:59.795Z,99701.75
2024-01-04T20:48:41.805Z,99735.16
2024-01-04T20:51:12.102Z,99737.81
2024-01-04T20:53:44.396Z,99737.72
2024-01-04T20:56:12.558Z,99703.91
2024-01-04T20:58:41.150Z,99725.34
2024-01-04T21:01:09.409Z,99729.25
2024-01-04T21:03:42.913Z,99739.44
2024-01-04T21:06:12.003Z,99735.44
2024-01-04T21:08:43.744Z,99733.16
2024-01-04T21:11:18.487Z,99729.72
2024-01-04T21:14:06.410Z,99725.72
2024-01-04T21:16:35.044Z,99730.31
2024-01-04T21:19:02.851Z,99731.84
2024-01-04T21:21:31.052Z,99734.28
2024-01-04T21:24:00.885Z,99732.38
2024-01-04T21:29:20.113Z,99726.50
2024-01-04T21:31:49.677Z,99733.94
2024-01-04T21:34:18.155Z,99732.31
2024-01-04T21:36:46.939Z,99707.62
2024-01-04T21:39:22.668Z,99732.97
2024-01-04T21:41:51.114Z,99732.56
2024-01-04T21:44:19.172Z,99713.91
2024-01-04T21:46:51.440Z,99738.09
2024-01-04T21:49:24.376Z,99741.06
2024-01-04T21:51:53.206Z,99743.06
2024-01-04T21:54:21.742Z,99738.69
2024-01-04T21:56:52.785Z,99745.44
2024-01-04T21:59:42.337Z,99719.06
2024-01-04T22:02:19.176Z,99751.03
2024-01-04T22:04:52.811Z,99747.22
2024-01-04T22:07:22.416Z,99737.72
2024-01-04T22:09:51.038Z,99739.44
2024-01-04T22:12:19.190Z,99733.63
2024-01-04T22:14:47.217Z,99742.00
2024-01-04T22:17:15.730Z,99741.44
2024-01-04T22:19:44.232Z,99746.31
2024-01-04T22:22:12.532Z,99742.09
2024-01-04T22:24:41.567Z,99716.66
2024-01-04T22:27:12.728Z,99741.41
2024-01-04T22:29:42.567Z,99757.50
2024-01-04T22:32:10.764Z,99751.16
2024-01-04T22:34:42.972Z,99753.06
2024-01-04T22:37:12.369Z,99742.28
2024-01-04T22:39:41.820Z,99759.47
2024-01-04T22:42:10.445Z,99729.75
2024-01-04T22:44:38.884Z,99764.50
2024-01-04T22:47:07.036Z,99763.81
2024-01-04T22:49:35.170Z,99759.31
2024-01-04T22:52:05.241Z,99760.66
2024-01-04T22:54:33.644Z,99766.16
2024-01-04T22:57:02.253Z,99756.00
2024-01-04T22:59:30.930Z,99762.09
2024-01-04T23:01:58.910Z,99728.19
2024-01-04T23:04:27.713Z,99763.91
2024-01-04T23:06:56.630Z,99765.69
2024-01-04T23:09:24.730Z,99761.72
2024-01-04T23:11:52.730Z,99766.50
2024-01-04T23:14:21.856Z,99764.56
2024-01-04T23:16:49.682Z,99762.69
2024-01-04T23:19:18.364Z,99769.38
2024-01-04T23:21:46.817Z,99764.22
2024-01-04T23:24:18.249Z,99760.66
2024-01-04T23:26:46.683Z,99766.41
2024-01-04T23:29:15.137Z,99764.50
2024-01-04T23:31:43.047Z,99766.16
2024-01-04T23:34:11.654Z,99765.47
2024-01-04T23:36:40.795Z,99765.72
2024-01-04T23:39:09.744Z,99773.69
2024-01-04T23:41:40.705Z,99777.22
2024-01-04T23:44:11.128Z,99737.62
2024-01-04T23:46:39.408Z,99768.81
2024-01-04T23:49:07.946Z,99772.03
2024-01-04T23:51:39.279Z,99774.88
2024-01-04T23:54:07.958Z,99755.41
2024-01-04T23:56:35.953Z,99767.38
2024-01-04T23:59:04.156Z,99777.69
